createdAt,value
2023-05-06T00:00:31.392Z,3.17
2023-05-06T00:05:32.796Z,2.88
2023-05-06T00:10:34.465Z,3.10
2023-05-06T00:15:36.485Z,2.35
2023-05-06T00:20:37.871Z,2.67
2023-05-06T00:25:39.271Z,2.22
2023-05-06T00:30:40.674Z,2.38
2023-05-06T00:35:42.033Z,2.55
2023-05-06T00:40:43.378Z,2.80
2023-05-06T00:45:44.901Z,2.90
2023-05-06T00:50:46.383Z,3.15
2023-05-06T00:55:49.736Z,2.92
2023-05-06T01:00:52.194Z,2.47
2023-05-06T01:06:15.857Z,2.53
2023-05-06T01:11:24.195Z,2.67
2023-05-06T01:16:29.391Z,2.45
2023-05-06T01:21:34.700Z,2.35
2023-05-06T01:26:36.103Z,2.60
2023-05-06T01:31:45.606Z,2.20
2023-05-06T01:37:17.910Z,2.10
2023-05-06T01:42:21.645Z,1.83
2023-05-06T01:47:24.098Z,2.13
2023-05-06T01:52:26.447Z,3.45
2023-05-06T01:57:28.505Z,3.20
2023-05-06T02:02:31.321Z,4.05
2023-05-06T02:07:32.687Z,3.53
2023-05-06T02:12:34.287Z,3.83
2023-05-06T02:17:37.173Z,3.38
2023-05-06T02:22:38.553Z,4.00
2023-05-06T02:27:40.003Z,3.45
2023-05-06T02:32:41.632Z,3.63
2023-05-06T02:37:42.997Z,3.63
2023-05-06T02:42:44.501Z,3.28
2023-05-06T02:47:45.934Z,2.80
2023-05-06T02:52:47.271Z,3.15
2023-05-06T02:57:48.741Z,3.50
2023-05-06T03:02:50.237Z,2.30
2023-05-06T03:07:51.662Z,2.17
2023-05-06T03:12:53.102Z,2.10
2023-05-06T03:17:54.549Z,2.63
2023-05-06T03:22:56.355Z,2.40
2023-05-06T03:27:57.702Z,3.15
2023-05-06T03:33:02.029Z,2.88
2023-05-06T03:38:03.474Z,2.85
2023-05-06T03:43:04.905Z,3.22
2023-05-06T03:48:06.416Z,3.88
2023-05-06T03:53:08.131Z,3.00
2023-05-06T03:58:09.539Z,2.85
2023-05-06T04:03:11.180Z,2.88
2023-05-06T04:08:12.571Z,3.67
2023-05-06T04:13:14.067Z,3.17
2023-05-06T04:18:19.201Z,2.38
2023-05-06T04:23:20.997Z,3.08
2023-05-06T04:28:22.374Z,2.50
2023-05-06T04:33:24.991Z,3.67
2023-05-06T04:38:30.381Z,3.15
2023-05-06T04:43:32.680Z,3.88
2023-05-06T04:48:34.098Z,3.38
2023-05-06T04:53:35.702Z,2.80
2023-05-06T04:58:37.086Z,2.20
2023-05-06T05:03:38.574Z,2.45
2023-05-06T05:08:39.995Z,2.63
2023-05-06T05:13:41.320Z,2.40
2023-05-06T05:18:42.895Z,2.58
2023-05-06T05:23:44.233Z,2.80
2023-05-06T05:28:45.602Z,4.28
2023-05-06T05:33:47.062Z,3.10
2023-05-06T05:38:48.845Z,3.10
2023-05-06T05:43:50.184Z,2.67
2023-05-06T05:48:51.564Z,2.75
2023-05-06T05:53:53.250Z,2.75
2023-05-06T05:58:54.624Z,3.38
2023-05-06T06:03:56.433Z,3.22
2023-05-06T06:08:58.842Z,2.75
2023-05-06T06:14:00.270Z,2.58
2023-05-06T06:19:01.765Z,2.08
2023-05-06T06:24:03.333Z,2.65
2023-05-06T06:29:04.687Z,2.30
2023-05-06T06:34:06.513Z,2.35
2023-05-06T06:39:08.382Z,2.75
2023-05-06T06:44:09.701Z,2.65
2023-05-06T06:49:11.118Z,2.85
2023-05-06T06:54:12.480Z,3.00
2023-05-06T06:59:14.006Z,3.85
2023-05-06T07:04:15.388Z,3.17
2023-05-06T07:09:16.941Z,2.42
2023-05-06T07:14:18.271Z,2.40
2023-05-06T07:19:19.633Z,2.65
2023-05-06T07:24:21.102Z,1.98
2023-05-06T07:29:22.476Z,2.22
2023-05-06T07:34:23.861Z,2.08
2023-05-06T07:39:25.227Z,2.65
2023-05-06T07:44:26.622Z,2.42
2023-05-06T07:49:30.447Z,2.33
2023-05-06T07:54:31.948Z,2.55
2023-05-06T07:59:33.365Z,2.63
2023-05-06T08:04:34.866Z,1.80
2023-05-06T08:09:36.408Z,1.02
2023-05-06T08:14:37.821Z,1.02
2023-05-06T08:19:39.166Z,1.30
2023-05-06T08:24:40.570Z,1.08
2023-05-06T08:29:41.902Z,0.70
2023-05-06T08:34:43.307Z,0.80
2023-05-06T08:39:45.664Z,1.00
2023-05-06T08:44:47.413Z,0.75
2023-05-06T08:49:49.168Z,0.75
2023-05-06T08:54:54.448Z,0.70
2023-05-06T08:59:56.686Z,0.90
2023-05-06T09:04:59.520Z,0.90
2023-05-06T09:10:05.502Z,0.98
2023-05-06T09:15:09.724Z,0.90
2023-05-06T09:20:12.484Z,0.80
2023-05-06T09:25:14.114Z,1.35
2023-05-06T09:30:15.659Z,0.50
2023-05-06T09:35:17.381Z,0.60
2023-05-06T09:40:18.750Z,0.50
2023-05-06T09:45:21.400Z,0.70
2023-05-06T09:50:23.537Z,0.70
2023-05-06T09:55:27.122Z,0.60
2023-05-06T10:00:30.272Z,0.50
2023-05-06T10:05:33.434Z,0.40
2023-05-06T10:10:35.103Z,1.05
2023-05-06T10:15:38.450Z,0.50
2023-05-06T10:20:42.114Z,0.55
2023-05-06T10:25:45.530Z,0.93
2023-05-06T10:30:48.269Z,0.55
2023-05-06T10:35:59.429Z,0.60
2023-05-06T10:41:01.373Z,0.40
2023-05-06T10:46:09.631Z,0.30
2023-05-06T10:51:13.701Z,0.50
2023-05-06T10:56:15.241Z,0.55
2023-05-06T11:01:16.816Z,0.40
2023-05-06T11:06:48.108Z,0.40
2023-05-06T11:12:01.801Z,0.30
2023-05-06T11:17:28.669Z,0.45
2023-05-06T11:27:41.831Z,0.30
2023-05-06T11:32:43.837Z,0.30
2023-05-06T11:37:45.260Z,0.30
2023-05-06T11:42:46.647Z,0.30
2023-05-06T11:47:48.066Z,0.63
2023-05-06T11:52:49.488Z,0.40
2023-05-06T11:57:53.087Z,0.95
2023-05-06T12:02:56.316Z,0.30
2023-05-06T12:07:57.868Z,0.30
2023-05-06T12:12:59.522Z,0.20
2023-05-06T12:18:02.146Z,0.40
2023-05-06T12:23:13.508Z,0.20
2023-05-06T12:28:19.124Z,0.30
2023-05-06T12:33:20.762Z,0.20
2023-05-06T12:38:22.283Z,0.30
2023-05-06T12:43:32.691Z,0.60
2023-05-06T12:48:34.705Z,0.20
2023-05-06T12:53:36.225Z,0.30
2023-05-06T12:58:38.528Z,0.20
2023-05-06T13:03:40.947Z,0.28
2023-05-06T13:08:42.535Z,0.20
2023-05-06T13:13:43.899Z,0.20
2023-05-06T13:18:45.251Z,0.17
2023-05-06T13:23:47.775Z,0.20
2023-05-06T13:28:49.151Z,0.10
2023-05-06T13:33:50.558Z,0.25
2023-05-06T13:38:51.954Z,0.20
2023-05-06T13:43:53.361Z,0.20
2023-05-06T13:48:54.759Z,0.30
2023-05-06T13:53:56.170Z,0.60
2023-05-06T13:58:57.509Z,0.20
2023-05-06T14:03:58.879Z,0.20
2023-05-06T14:09:00.334Z,0.20
2023-05-06T14:14:02.329Z,0.30
2023-05-06T14:19:04.633Z,0.20
2023-05-06T14:24:07.740Z,0.40
2023-05-06T14:29:09.407Z,0.40
2023-05-06T14:34:11.309Z,0.20
2023-05-06T14:39:13.113Z,0.30
2023-05-06T14:44:15.186Z,0.10
2023-05-06T14:49:16.602Z,0.20
2023-05-06T14:54:17.967Z,0.40
2023-05-06T14:59:19.308Z,0.30
2023-05-06T15:04:20.662Z,0.30
2023-05-06T15:09:22.139Z,0.30
2023-05-06T15:14:23.540Z,0.25
2023-05-06T15:19:24.924Z,0.20
2023-05-06T15:24:26.573Z,0.20
2023-05-06T15:29:28.473Z,0.30
2023-05-06T15:34:29.821Z,0.20
2023-05-06T15:39:36.722Z,0.20
2023-05-06T15:44:38.180Z,0.40
2023-05-06T15:54:49.396Z,0.20
2023-05-06T15:59:51.421Z,0.30
2023-05-06T16:04:52.971Z,0.30
2023-05-06T16:09:54.550Z,0.30
2023-05-06T16:14:55.905Z,0.20
2023-05-06T16:19:57.314Z,0.30
2023-05-06T16:24:58.651Z,0.30
2023-05-06T16:30:00.197Z,0.25
2023-05-06T16:35:01.592Z,0.40
2023-05-06T16:40:04.328Z,0.40
2023-05-06T16:45:07.051Z,0.50
2023-05-06T16:50:08.725Z,0.73
2023-05-06T16:55:10.725Z,0.30
2023-05-06T17:00:12.932Z,0.30
2023-05-06T17:05:15.431Z,0.30
2023-05-06T17:10:16.899Z,0.57
2023-05-06T17:15:18.381Z,0.70
2023-05-06T17:20:20.027Z,1.13
2023-05-06T17:25:21.451Z,0.50
2023-05-06T17:30:22.906Z,4.68
2023-05-06T17:35:24.365Z,0.90
2023-05-06T17:40:25.725Z,0.63
2023-05-06T17:45:28.286Z,0.55
2023-05-06T17:50:29.934Z,0.50
2023-05-06T17:55:31.893Z,0.55
2023-05-06T18:00:33.479Z,0.50
2023-05-06T18:05:34.830Z,0.60
2023-05-06T18:10:36.287Z,0.50
2023-05-06T18:15:37.625Z,0.40
2023-05-06T18:20:39.790Z,0.82
2023-05-06T18:25:41.219Z,0.70
2023-05-06T18:30:42.560Z,0.60
2023-05-06T18:35:43.907Z,1.00
2023-05-06T18:40:47.208Z,0.50
2023-05-06T18:45:48.684Z,2.60
2023-05-06T18:50:50.885Z,2.20
2023-05-06T18:55:52.281Z,5.80
2023-05-06T19:00:55.285Z,3.45
2023-05-06T19:05:58.885Z,0.70
2023-05-06T19:11:01.115Z,1.10
2023-05-06T19:16:02.532Z,0.80
2023-05-06T19:21:04.431Z,0.80
2023-05-06T19:26:06.795Z,1.13
2023-05-06T19:31:10.395Z,1.70
2023-05-06T19:36:11.844Z,0.40
2023-05-06T19:41:13.445Z,0.30
2023-05-06T19:46:15.961Z,0.35
2023-05-06T19:51:17.448Z,0.40
2023-05-06T19:56:19.579Z,0.30
2023-05-06T20:01:23.604Z,0.30
2023-05-06T20:06:25.002Z,0.40
2023-05-06T20:11:26.447Z,0.40
2023-05-06T20:16:27.846Z,0.35
2023-05-06T20:21:29.277Z,0.40
2023-05-06T20:26:30.724Z,0.40
2023-05-06T20:31:32.180Z,0.30
2023-05-06T20:36:34.925Z,0.30
2023-05-06T20:41:36.342Z,0.30
2023-05-06T20:46:37.696Z,0.40
2023-05-06T20:51:39.034Z,0.30
2023-05-06T20:56:40.518Z,0.30
2023-05-06T21:01:41.956Z,0.30
2023-05-06T21:06:43.299Z,0.30
2023-05-06T21:11:44.880Z,0.30
2023-05-06T21:16:46.209Z,0.40
2023-05-06T21:21:47.590Z,0.93
2023-05-06T21:26:48.941Z,0.32
2023-05-06T21:31:50.269Z,0.40
2023-05-06T21:36:51.643Z,0.60
2023-05-06T21:41:52.993Z,0.50
2023-05-06T21:46:54.463Z,0.80
2023-05-06T21:51:56.154Z,0.70
2023-05-06T21:56:57.485Z,1.10
2023-05-06T22:01:58.814Z,1.00
2023-05-06T22:07:00.296Z,0.63
2023-05-06T22:12:06.414Z,0.50
2023-05-06T22:17:07.955Z,0.60
2023-05-06T22:22:09.349Z,0.50
2023-05-06T22:27:11.176Z,0.60
2023-05-06T22:32:12.556Z,0.45
2023-05-06T22:37:13.975Z,0.50
2023-05-06T22:42:15.576Z,0.70
2023-05-06T22:47:16.956Z,0.70
2023-05-06T22:52:19.322Z,0.90
2023-05-06T22:57:23.118Z,0.73
2023-05-06T23:02:24.563Z,0.80
2023-05-06T23:07:25.934Z,0.60
2023-05-06T23:12:32.166Z,0.60
2023-05-06T23:17:33.569Z,0.60
2023-05-06T23:22:35.228Z,0.50
2023-05-06T23:27:36.985Z,0.63
2023-05-06T23:32:38.639Z,0.60
2023-05-06T23:37:40.060Z,0.40
2023-05-06T23:42:41.502Z,0.88
2023-05-06T23:47:42.862Z,0.63
2023-05-06T23:52:44.272Z,0.40
2023-05-06T23:57:45.739Z,1.60
